createdAt,value
2018-07-13T00:01:12.562Z,17.29
2018-07-13T00:03:41.453Z,17.36
2018-07-13T00:06:10.402Z,17.40
2018-07-13T00:08:39.347Z,17.36
2018-07-13T00:11:08.331Z,17.28
2018-07-13T00:13:48.648Z,17.25
2018-07-13T00:16:17.602Z,17.45
2018-07-13T00:18:46.570Z,17.43
2018-07-13T00:21:15.591Z,17.41
2018-07-13T00:23:44.506Z,17.27
2018-07-13T00:26:13.488Z,17.31
2018-07-13T00:28:42.445Z,17.41
2018-07-13T00:31:11.397Z,17.48
2018-07-13T00:33:40.700Z,17.47
2018-07-13T00:36:09.673Z,17.51
2018-07-13T00:38:38.645Z,17.59
2018-07-13T00:41:07.639Z,17.38
2018-07-13T00:43:36.573Z,17.42
2018-07-13T00:46:05.553Z,17.23
2018-07-13T00:48:34.501Z,17.43
2018-07-13T00:51:03.520Z,17.58
2018-07-13T00:53:32.468Z,17.58
2018-07-13T00:56:01.400Z,17.61
2018-07-13T00:58:30.420Z,17.69
2018-07-13T01:00:59.390Z,17.45
2018-07-13T01:03:28.385Z,17.37
2018-07-13T01:05:57.338Z,17.39
2018-07-13T01:08:26.286Z,17.47
2018-07-13T01:10:55.263Z,17.42
2018-07-13T01:13:24.268Z,17.44
2018-07-13T01:15:56.150Z,17.50
2018-07-13T01:18:25.065Z,17.40
2018-07-13T01:20:54.055Z,17.38
2018-07-13T01:23:22.990Z,17.33
2018-07-13T01:25:51.967Z,17.37
2018-07-13T01:28:20.918Z,17.34
2018-07-13T01:30:49.905Z,17.44
2018-07-13T01:33:18.861Z,17.50
2018-07-13T01:35:47.778Z,17.51
2018-07-13T01:38:16.740Z,17.50
2018-07-13T01:40:45.677Z,17.50
2018-07-13T01:43:14.688Z,17.56
2018-07-13T01:45:43.679Z,17.60
2018-07-13T01:48:12.636Z,17.44
2018-07-13T01:50:41.570Z,17.37
2018-07-13T01:53:10.544Z,17.42
2018-07-13T01:55:39.565Z,17.48
2018-07-13T01:58:08.528Z,17.48
2018-07-13T02:00:37.492Z,17.54
2018-07-13T02:03:06.454Z,17.56
2018-07-13T02:05:35.452Z,17.58
2018-07-13T02:08:04.369Z,17.56
2018-07-13T02:10:33.352Z,17.41
2018-07-13T02:13:02.334Z,17.38
2018-07-13T02:15:31.320Z,17.28
2018-07-13T02:18:00.320Z,17.30
2018-07-13T02:20:29.252Z,17.31
2018-07-13T02:22:58.201Z,17.27
2018-07-13T02:25:27.218Z,17.31
2018-07-13T02:27:56.126Z,17.37
2018-07-13T02:30:25.062Z,17.52
2018-07-13T02:32:54.032Z,17.44
2018-07-13T02:35:23.035Z,17.25
2018-07-13T02:37:51.988Z,17.25
2018-07-13T02:40:20.924Z,17.31
2018-07-13T02:42:49.904Z,17.34
2018-07-13T02:45:18.809Z,17.44
2018-07-13T02:47:47.847Z,17.43
2018-07-13T02:50:16.772Z,17.50
2018-07-13T02:52:45.697Z,17.46
2018-07-13T02:55:14.703Z,17.55
2018-07-13T02:57:43.681Z,17.62
2018-07-13T03:00:12.741Z,17.64
2018-07-13T03:02:41.687Z,17.60
2018-07-13T03:05:10.642Z,17.60
2018-07-13T03:07:39.622Z,17.60
2018-07-13T03:10:08.604Z,17.73
2018-07-13T03:12:37.575Z,17.50
2018-07-13T03:15:06.745Z,17.39
2018-07-13T03:17:35.702Z,17.39
2018-07-13T03:20:04.690Z,17.52
2018-07-13T03:22:33.732Z,17.58
2018-07-13T03:25:09.167Z,17.45
2018-07-13T03:27:38.153Z,17.62
2018-07-13T03:30:07.093Z,17.49
2018-07-13T03:32:36.087Z,17.49
2018-07-13T03:35:05.038Z,17.65
2018-07-13T03:37:34.003Z,17.79
2018-07-13T03:40:02.963Z,17.85
2018-07-13T03:42:32.021Z,17.88
2018-07-13T03:45:00.934Z,17.83
2018-07-13T03:47:29.881Z,17.69
2018-07-13T03:49:58.818Z,17.70
2018-07-13T03:52:27.823Z,17.64
2018-07-13T03:54:56.781Z,17.64
2018-07-13T03:57:25.775Z,17.68
2018-07-13T03:59:54.773Z,17.73
2018-07-13T04:02:23.751Z,17.80
2018-07-13T04:04:52.793Z,17.75
2018-07-13T04:07:21.713Z,17.67
2018-07-13T04:09:50.677Z,17.68
2018-07-13T04:12:19.635Z,17.64
2018-07-13T04:14:48.658Z,17.65
2018-07-13T04:17:17.583Z,17.65
2018-07-13T04:19:49.436Z,17.60
2018-07-13T04:22:18.409Z,17.54
2018-07-13T04:24:47.397Z,17.50
2018-07-13T04:27:16.493Z,17.46
2018-07-13T04:29:46.051Z,17.54
2018-07-13T04:32:15.037Z,17.64
2018-07-13T04:34:43.961Z,17.73
2018-07-13T04:37:12.950Z,17.72
2018-07-13T04:39:41.875Z,17.60
2018-07-13T04:42:10.925Z,17.54
2018-07-13T04:44:39.864Z,17.46
2018-07-13T04:47:08.858Z,17.51
2018-07-13T04:49:38.056Z,17.57
2018-07-13T04:52:07.025Z,17.51
2018-07-13T04:54:36.005Z,17.49
2018-07-13T04:57:04.941Z,17.53
2018-07-13T04:59:34.053Z,17.49
2018-07-13T05:02:03.113Z,17.56
2018-07-13T05:04:32.110Z,17.60
2018-07-13T05:07:01.107Z,17.68
2018-07-13T05:09:30.085Z,17.62
2018-07-13T05:11:59.068Z,17.63
2018-07-13T05:14:28.070Z,17.73
2018-07-13T05:16:57.086Z,17.52
2018-07-13T05:19:26.000Z,17.41
2018-07-13T05:21:54.979Z,17.40
2018-07-13T05:24:23.947Z,17.48
2018-07-13T05:26:52.928Z,17.63
2018-07-13T05:29:21.898Z,17.64
2018-07-13T05:31:50.947Z,17.80
2018-07-13T05:34:20.155Z,17.77
2018-07-13T05:36:49.143Z,17.76
2018-07-13T05:39:18.185Z,17.73
2018-07-13T05:41:47.200Z,17.75
2018-07-13T05:44:16.195Z,17.91
2018-07-13T05:46:45.241Z,17.94
2018-07-13T05:49:14.293Z,17.91
2018-07-13T05:51:43.345Z,17.90
2018-07-13T05:54:13.183Z,17.86
2018-07-13T05:56:42.161Z,17.85
2018-07-13T05:59:11.195Z,17.87
2018-07-13T06:01:40.209Z,17.96
2018-07-13T06:04:09.434Z,17.93
2018-07-13T06:06:38.431Z,18.01
2018-07-13T06:09:09.419Z,18.20
2018-07-13T06:11:38.606Z,18.16
2018-07-13T06:14:07.849Z,18.14
2018-07-13T06:16:36.792Z,18.20
2018-07-13T06:19:05.809Z,18.29
2018-07-13T06:21:34.741Z,18.28
2018-07-13T06:24:03.982Z,18.19
2018-07-13T06:26:33.009Z,18.19
2018-07-13T06:29:01.952Z,18.14
2018-07-13T06:31:31.039Z,18.06
2018-07-13T06:33:59.883Z,18.22
2018-07-13T06:36:28.848Z,18.48
2018-07-13T06:38:57.807Z,18.64
2018-07-13T06:41:26.808Z,18.74
2018-07-13T06:43:55.859Z,18.77
2018-07-13T06:46:24.808Z,18.75
2018-07-13T06:48:53.758Z,18.87
2018-07-13T06:51:22.771Z,18.98
2018-07-13T06:53:51.853Z,19.10
2018-07-13T06:56:20.811Z,19.72
2018-07-13T06:59:01.022Z,20.33
2018-07-13T07:01:29.994Z,20.21
2018-07-13T07:04:32.503Z,20.53
2018-07-13T07:07:03.388Z,20.30
2018-07-13T07:09:32.360Z,20.96
2018-07-13T07:13:09.062Z,21.12
2018-07-13T07:15:38.488Z,21.37
2018-07-13T07:18:07.725Z,20.97
2018-07-13T07:20:36.751Z,20.80
2018-07-13T07:23:05.763Z,20.55
2018-07-13T07:25:34.850Z,20.65
2018-07-13T07:28:03.863Z,21.22
2018-07-13T07:30:32.846Z,21.55
2018-07-13T07:33:01.793Z,22.18
2018-07-13T07:35:30.751Z,22.50
2018-07-13T07:37:59.745Z,21.86
2018-07-13T07:40:28.737Z,21.19
2018-07-13T07:42:57.789Z,20.78
2018-07-13T07:45:26.864Z,20.58
2018-07-13T07:47:55.921Z,20.49
2018-07-13T07:50:25.085Z,20.44
2018-07-13T07:52:54.122Z,20.63
2018-07-13T07:55:23.124Z,20.49
2018-07-13T07:57:52.120Z,20.54
2018-07-13T08:00:21.108Z,20.56
2018-07-13T08:02:50.065Z,20.87
2018-07-13T08:05:19.130Z,20.96
2018-07-13T08:07:48.101Z,20.70
2018-07-13T08:10:17.477Z,20.80
2018-07-13T08:12:46.549Z,21.14
2018-07-13T08:15:15.643Z,21.16
2018-07-13T08:17:44.565Z,21.11
2018-07-13T08:20:18.269Z,20.89
2018-07-13T08:22:55.925Z,21.16
2018-07-13T08:25:25.808Z,21.09
2018-07-13T08:27:57.527Z,21.28
2018-07-13T08:30:31.826Z,21.29
2018-07-13T08:33:00.822Z,21.45
2018-07-13T08:35:29.779Z,21.26
2018-07-13T08:37:58.691Z,20.79
2018-07-13T08:40:27.631Z,20.69
2018-07-13T08:42:56.753Z,21.24
2018-07-13T08:45:25.836Z,21.24
2018-07-13T08:47:59.007Z,20.99
2018-07-13T08:50:28.436Z,21.48
2018-07-13T08:52:58.133Z,21.34
2018-07-13T08:55:27.143Z,21.29
2018-07-13T08:57:56.490Z,21.68
2018-07-13T09:00:25.532Z,21.67
2018-07-13T09:02:54.489Z,21.71
2018-07-13T09:05:23.440Z,21.20
2018-07-13T09:07:52.536Z,20.92
2018-07-13T09:10:21.588Z,21.11
2018-07-13T09:12:50.604Z,21.19
2018-07-13T09:15:19.557Z,21.46
2018-07-13T09:17:48.528Z,21.73
2018-07-13T09:20:17.541Z,21.78
2018-07-13T09:22:46.556Z,21.68
2018-07-13T09:25:15.480Z,21.61
2018-07-13T09:27:44.527Z,21.71
2018-07-13T09:30:13.453Z,21.63
2018-07-13T09:32:42.406Z,21.45
2018-07-13T09:35:11.412Z,21.40
2018-07-13T09:37:40.432Z,21.26
2018-07-13T09:40:09.419Z,21.49
2018-07-13T09:42:38.450Z,21.01
2018-07-13T09:45:07.554Z,21.03
2018-07-13T09:47:36.869Z,21.45
2018-07-13T09:50:06.020Z,21.53
2018-07-13T09:52:35.028Z,21.34
2018-07-13T09:55:03.960Z,21.25
2018-07-13T09:57:32.947Z,21.13
2018-07-13T10:00:01.923Z,21.09
2018-07-13T10:02:30.856Z,21.29
2018-07-13T10:04:59.908Z,21.15
2018-07-13T10:07:29.004Z,21.78
2018-07-13T10:09:58.017Z,21.62
2018-07-13T10:12:26.999Z,21.94
2018-07-13T10:14:56.060Z,21.90
2018-07-13T10:17:25.235Z,21.60
2018-07-13T10:19:54.184Z,21.21
2018-07-13T10:22:29.160Z,21.11
2018-07-13T10:25:00.044Z,21.08
2018-07-13T10:27:33.419Z,21.25
2018-07-13T10:30:04.508Z,21.62
2018-07-13T10:32:33.940Z,21.68
2018-07-13T10:35:04.640Z,21.78
2018-07-13T10:37:33.894Z,21.53
2018-07-13T10:40:02.846Z,21.48
2018-07-13T10:42:31.819Z,21.68
2018-07-13T10:45:00.854Z,22.04
2018-07-13T10:47:29.853Z,22.20
2018-07-13T10:49:58.750Z,22.43
2018-07-13T10:52:27.732Z,22.08
2018-07-13T10:54:56.760Z,21.92
2018-07-13T10:57:25.888Z,21.86
2018-07-13T10:59:54.822Z,21.81
2018-07-13T11:02:23.741Z,21.65
2018-07-13T11:04:52.709Z,21.65
2018-07-13T11:07:21.592Z,21.53
2018-07-13T11:09:50.777Z,21.52
2018-07-13T11:12:19.706Z,21.54
2018-07-13T11:14:48.621Z,21.77
2018-07-13T11:17:17.592Z,21.72
2018-07-13T11:19:46.704Z,21.62
2018-07-13T11:22:15.723Z,21.87
2018-07-13T11:24:44.637Z,21.92
2018-07-13T11:27:13.719Z,21.99
2018-07-13T11:29:42.804Z,22.44
2018-07-13T11:32:17.283Z,22.23
2018-07-13T11:34:49.138Z,21.98
2018-07-13T11:37:18.170Z,22.22
2018-07-13T11:39:47.209Z,22.50
2018-07-13T11:42:16.173Z,22.25
2018-07-13T11:44:45.087Z,22.40
2018-07-13T11:47:14.018Z,22.50
2018-07-13T11:49:42.915Z,22.60
2018-07-13T11:52:11.917Z,22.46
2018-07-13T11:54:40.767Z,22.65
2018-07-13T11:57:09.689Z,22.45
2018-07-13T11:59:38.649Z,22.54
2018-07-13T12:02:07.596Z,22.54
2018-07-13T12:04:36.669Z,22.54
2018-07-13T12:07:05.870Z,22.57
2018-07-13T12:09:34.766Z,22.68
2018-07-13T12:12:03.683Z,22.54
2018-07-13T12:14:39.252Z,22.41
2018-07-13T12:17:08.262Z,22.74
2018-07-13T12:19:37.268Z,22.55
2018-07-13T12:22:06.317Z,22.86
2018-07-13T12:24:35.243Z,22.78
2018-07-13T12:27:04.244Z,22.84
2018-07-13T12:29:33.167Z,22.99
2018-07-13T12:32:02.137Z,22.99
2018-07-13T12:34:31.092Z,23.13
2018-07-13T12:37:00.068Z,23.19
2018-07-13T12:39:28.980Z,23.02
2018-07-13T12:41:57.948Z,22.83
2018-07-13T12:44:26.931Z,22.83
2018-07-13T12:46:56.000Z,22.93
2018-07-13T12:49:24.932Z,22.84
2018-07-13T12:51:54.012Z,22.70
2018-07-13T12:54:23.026Z,22.66
2018-07-13T12:56:51.929Z,22.65
2018-07-13T12:59:20.919Z,22.73
2018-07-13T13:01:49.915Z,22.61
2018-07-13T13:04:18.869Z,22.38
2018-07-13T13:06:47.865Z,22.45
2018-07-13T13:09:16.897Z,22.59
2018-07-13T13:11:45.994Z,22.57
2018-07-13T13:14:14.985Z,22.46
2018-07-13T13:16:44.053Z,22.76
2018-07-13T13:19:12.974Z,22.64
2018-07-13T13:21:42.180Z,22.62
2018-07-13T13:24:11.096Z,22.73
2018-07-13T13:26:40.155Z,22.86
2018-07-13T13:29:09.250Z,22.88
2018-07-13T13:31:38.193Z,22.87
2018-07-13T13:34:07.630Z,22.62
2018-07-13T13:36:36.695Z,22.47
2018-07-13T13:39:05.800Z,22.61
2018-07-13T13:41:34.824Z,22.63
2018-07-13T13:44:03.818Z,22.28
2018-07-13T13:46:32.869Z,22.00
2018-07-13T13:49:01.914Z,22.18
2018-07-13T13:51:30.866Z,22.45
2018-07-13T13:53:59.858Z,22.56
2018-07-13T13:56:28.865Z,22.25
2018-07-13T13:58:57.854Z,22.17
2018-07-13T14:01:26.831Z,22.03
2018-07-13T14:03:55.843Z,22.21
2018-07-13T14:06:25.046Z,22.24
2018-07-13T14:08:54.043Z,22.27
2018-07-13T14:11:22.921Z,22.23
2018-07-13T14:13:51.867Z,21.89
2018-07-13T14:16:20.855Z,22.16
2018-07-13T14:18:49.825Z,22.19
2018-07-13T14:21:18.804Z,22.24
2018-07-13T14:23:47.783Z,22.35
2018-07-13T14:26:16.775Z,22.45
2018-07-13T14:28:45.723Z,22.48
2018-07-13T14:31:14.625Z,22.60
2018-07-13T14:33:43.639Z,22.65
2018-07-13T14:36:12.564Z,22.23
2018-07-13T14:38:41.632Z,22.22
2018-07-13T14:41:10.660Z,22.27
2018-07-13T14:43:39.697Z,22.26
2018-07-13T14:46:08.853Z,22.35
2018-07-13T14:48:37.775Z,22.27
2018-07-13T14:51:06.758Z,22.11
2018-07-13T14:53:35.696Z,22.27
2018-07-13T14:56:04.727Z,22.20
2018-07-13T14:58:33.691Z,22.26
2018-07-13T15:01:03.718Z,22.28
2018-07-13T15:03:32.691Z,22.60
2018-07-13T15:06:01.793Z,22.50
2018-07-13T15:08:30.591Z,22.52
2018-07-13T15:10:59.558Z,22.35
2018-07-13T15:13:28.618Z,22.18
2018-07-13T15:15:57.590Z,22.32
2018-07-13T15:18:26.559Z,22.23
2018-07-13T15:20:55.542Z,22.38
2018-07-13T15:23:24.526Z,22.34
2018-07-13T15:25:53.449Z,22.42
2018-07-13T15:28:22.544Z,22.55
2018-07-13T15:30:51.489Z,22.43
2018-07-13T15:33:20.437Z,22.59
2018-07-13T15:35:49.396Z,22.63
2018-07-13T15:38:18.331Z,22.62
2018-07-13T15:40:47.506Z,22.55
2018-07-13T15:43:16.572Z,22.45
2018-07-13T15:45:45.484Z,22.36
2018-07-13T15:48:14.381Z,22.07
2018-07-13T15:50:43.315Z,22.33
2018-07-13T15:53:12.255Z,22.41
2018-07-13T15:55:46.450Z,22.50
2018-07-13T15:58:15.513Z,22.45
2018-07-13T16:00:44.437Z,22.40
2018-07-13T16:03:14.358Z,22.20
2018-07-13T16:05:43.354Z,22.25
2018-07-13T16:08:12.345Z,22.23
2018-07-13T16:10:41.278Z,22.18
2018-07-13T16:13:10.380Z,21.99
2018-07-13T16:15:39.401Z,22.05
2018-07-13T16:18:08.415Z,22.13
2018-07-13T16:20:37.468Z,22.06
2018-07-13T16:23:06.451Z,21.61
2018-07-13T16:25:35.341Z,22.15
2018-07-13T16:28:04.248Z,22.09
2018-07-13T16:30:33.180Z,21.95
2018-07-13T16:33:02.187Z,22.03
2018-07-13T16:35:31.296Z,22.26
2018-07-13T16:38:00.212Z,22.21
2018-07-13T16:40:29.111Z,22.01
2018-07-13T16:42:58.055Z,22.12
2018-07-13T16:45:27.006Z,22.12
2018-07-13T16:47:56.046Z,22.16
2018-07-13T16:50:25.002Z,21.99
2018-07-13T16:52:53.922Z,21.98
2018-07-13T16:55:22.996Z,22.04
2018-07-13T16:57:51.880Z,22.13
2018-07-13T17:00:20.868Z,22.26
2018-07-13T17:02:49.857Z,22.34
2018-07-13T17:05:18.784Z,22.31
2018-07-13T17:07:47.697Z,22.32
2018-07-13T17:10:16.660Z,22.30
2018-07-13T17:12:45.600Z,22.24
2018-07-13T17:15:14.608Z,22.37
2018-07-13T17:17:43.564Z,22.34
2018-07-13T17:20:12.651Z,22.37
2018-07-13T17:22:41.586Z,22.12
2018-07-13T17:25:10.512Z,22.09
2018-07-13T17:27:39.420Z,22.12
2018-07-13T17:30:09.590Z,22.16
2018-07-13T17:32:38.590Z,22.05
2018-07-13T17:35:07.794Z,22.16
2018-07-13T17:37:36.852Z,22.22
2018-07-13T17:40:05.834Z,22.24
2018-07-13T17:42:34.902Z,22.29
2018-07-13T17:45:03.812Z,22.33
2018-07-13T17:47:32.887Z,22.28
2018-07-13T17:50:02.104Z,22.17
2018-07-13T17:52:31.241Z,22.19
2018-07-13T17:55:00.341Z,21.89
2018-07-13T17:57:29.310Z,21.79
2018-07-13T17:59:58.272Z,21.76
2018-07-13T18:02:27.340Z,21.65
2018-07-13T18:04:56.254Z,21.73
2018-07-13T18:07:25.229Z,21.72
2018-07-13T18:09:54.141Z,21.62
2018-07-13T18:12:23.169Z,21.52
2018-07-13T18:14:52.268Z,21.44
2018-07-13T18:17:21.168Z,21.32
2018-07-13T18:19:50.135Z,21.27
2018-07-13T18:22:19.069Z,21.23
2018-07-13T18:24:48.015Z,21.30
2018-07-13T18:27:16.983Z,21.25
2018-07-13T18:29:46.012Z,21.19
2018-07-13T18:32:14.925Z,20.94
2018-07-13T18:34:48.704Z,20.83
2018-07-13T18:37:17.609Z,20.78
2018-07-13T18:39:46.592Z,20.77
2018-07-13T18:42:21.825Z,20.76
2018-07-13T18:44:51.041Z,20.52
2018-07-13T18:47:20.018Z,20.39
2018-07-13T18:49:48.988Z,20.32
2018-07-13T18:52:17.917Z,20.26
2018-07-13T18:55:49.969Z,20.26
2018-07-13T18:58:18.865Z,20.44
2018-07-13T19:00:47.783Z,20.32
2018-07-13T19:03:16.751Z,20.17
2018-07-13T19:05:45.821Z,20.23
2018-07-13T19:08:14.785Z,20.21
2018-07-13T19:10:43.748Z,20.17
2018-07-13T19:13:12.803Z,20.12
2018-07-13T19:15:45.283Z,20.11
2018-07-13T19:18:14.141Z,20.17
2018-07-13T19:20:43.114Z,20.21
2018-07-13T19:23:12.142Z,20.23
2018-07-13T19:25:41.040Z,20.16
2018-07-13T19:28:10.183Z,19.94
2018-07-13T19:30:40.927Z,19.67
2018-07-13T19:33:09.813Z,19.61
2018-07-13T19:35:38.725Z,19.46
2018-07-13T19:38:07.660Z,19.50
2018-07-13T19:40:36.585Z,19.45
2018-07-13T19:43:05.668Z,19.54
2018-07-13T19:45:34.672Z,19.60
2018-07-13T19:48:03.614Z,19.57
2018-07-13T19:50:32.625Z,19.58
2018-07-13T19:53:01.850Z,19.41
2018-07-13T19:55:30.856Z,19.39
2018-07-13T19:57:59.784Z,19.27
2018-07-13T20:00:28.886Z,19.10
2018-07-13T20:02:57.809Z,19.17
2018-07-13T20:05:26.844Z,19.23
2018-07-13T20:07:55.811Z,19.19
2018-07-13T20:10:24.714Z,19.23
2018-07-13T20:12:53.704Z,19.29
2018-07-13T20:15:22.661Z,19.17
2018-07-13T20:17:51.629Z,19.17
2018-07-13T20:20:20.564Z,19.11
2018-07-13T20:22:49.518Z,19.12
2018-07-13T20:25:18.455Z,19.03
2018-07-13T20:27:47.458Z,18.93
2018-07-13T20:30:16.528Z,19.01
2018-07-13T20:32:45.460Z,19.00
2018-07-13T20:35:14.405Z,18.80
2018-07-13T20:37:43.337Z,18.86
2018-07-13T20:40:12.346Z,18.91
2018-07-13T20:42:41.290Z,18.91
2018-07-13T20:45:10.292Z,18.97
2018-07-13T20:47:39.255Z,18.88
2018-07-13T20:50:08.135Z,18.95
2018-07-13T20:52:37.132Z,18.71
2018-07-13T20:55:06.020Z,18.85
2018-07-13T20:57:34.909Z,18.92
2018-07-13T21:00:04.170Z,18.90
2018-07-13T21:02:34.168Z,18.78
2018-07-13T21:05:03.124Z,18.74
2018-07-13T21:07:32.073Z,18.83
2018-07-13T21:10:01.022Z,18.85
2018-07-13T21:12:30.023Z,18.85
2018-07-13T21:14:58.945Z,18.86
2018-07-13T21:17:27.855Z,18.93
2018-07-13T21:19:56.827Z,18.79
2018-07-13T21:22:25.679Z,18.83
2018-07-13T21:24:54.595Z,18.75
2018-07-13T21:27:23.601Z,18.63
2018-07-13T21:29:52.789Z,18.64
2018-07-13T21:32:21.709Z,18.64
2018-07-13T21:34:50.704Z,18.67
2018-07-13T21:37:19.612Z,18.51
2018-07-13T21:39:48.524Z,18.55
2018-07-13T21:42:17.541Z,18.52
2018-07-13T21:44:46.441Z,18.56
2018-07-13T21:47:15.398Z,18.52
2018-07-13T21:49:44.329Z,18.65
2018-07-13T21:52:13.384Z,18.61
2018-07-13T21:54:42.170Z,18.56
2018-07-13T21:57:11.102Z,18.63
2018-07-13T21:59:40.223Z,18.56
2018-07-13T22:02:09.210Z,18.47
2018-07-13T22:04:38.134Z,18.49
2018-07-13T22:07:07.052Z,18.45
2018-07-13T22:09:35.972Z,18.48
2018-07-13T22:12:04.976Z,18.63
2018-07-13T22:14:33.900Z,18.37
2018-07-13T22:17:02.934Z,18.49
2018-07-13T22:19:31.886Z,18.53
2018-07-13T22:22:00.810Z,18.61
2018-07-13T22:24:29.736Z,18.60
2018-07-13T22:26:58.659Z,18.66
2018-07-13T22:29:27.641Z,18.65
2018-07-13T22:31:56.524Z,18.44
2018-07-13T22:34:25.428Z,18.48
2018-07-13T22:36:54.324Z,18.57
2018-07-13T22:39:23.229Z,18.49
2018-07-13T22:41:52.135Z,18.24
2018-07-13T22:44:21.222Z,18.27
2018-07-13T22:46:50.100Z,18.10
2018-07-13T22:49:19.038Z,18.04
2018-07-13T22:51:47.936Z,17.97
2018-07-13T22:54:16.895Z,17.95
2018-07-13T22:56:45.828Z,17.82
2018-07-13T22:59:14.791Z,17.84
2018-07-13T23:01:43.908Z,17.85
2018-07-13T23:04:12.899Z,17.85
2018-07-13T23:06:41.828Z,17.74
2018-07-13T23:09:10.777Z,17.81
2018-07-13T23:11:39.725Z,17.70
2018-07-13T23:14:08.656Z,17.77
2018-07-13T23:16:37.609Z,17.85
2018-07-13T23:19:06.840Z,17.79
2018-07-13T23:21:35.775Z,17.85
2018-07-13T23:24:04.694Z,17.81
2018-07-13T23:26:33.597Z,17.71
2018-07-13T23:29:02.587Z,17.81
2018-07-13T23:31:31.485Z,17.88
2018-07-13T23:34:00.471Z,17.86
2018-07-13T23:36:29.437Z,17.77
2018-07-13T23:38:58.331Z,17.84
2018-07-13T23:41:27.249Z,17.87
2018-07-13T23:43:56.182Z,17.79
2018-07-13T23:46:25.111Z,17.72
2018-07-13T23:48:54.027Z,17.88
2018-07-13T23:51:23.022Z,17.88
2018-07-13T23:53:52.048Z,17.98
2018-07-13T23:56:21.546Z,17.93
2018-07-13T23:58:50.522Z,17.98
